Time;durP1;ratioP1;P1;durP2;ratioP2;P2;SDS_P1;SDS_P2;PMS_P1;PMS_P2;Temp;Humidity;BMP_temperature;BMP_pressure;BME280_temperature;BME280_humidity;BME280_pressure;Samples;Min_cycle;Max_cycle;Signal;HPM_P1;HPM_P2
2023/07/13 00:02:18;;;;;;;5.80;2.25;;;16.70;99.90;;;;;;4969006;28;20027;-89
2023/07/13 00:04:44;;;;;;;6.72;2.60;;;16.70;99.90;;;;;;5083957;28;20058;-89
2023/07/13 00:07:09;;;;;;;8.75;2.47;;;16.70;99.90;;;;;;5075694;28;20043;-89
2023/07/13 00:09:35;;;;;;;7.15;2.50;;;16.70;99.90;;;;;;5062137;28;20475;-89
2023/07/13 00:12:02;;;;;;;5.53;2.60;;;16.70;99.90;;;;;;5024924;28;20038;-89
2023/07/13 00:14:29;;;;;;;5.80;2.60;;;16.60;99.90;;;;;;5063429;28;20042;-89
2023/07/13 00:16:55;;;;;;;7.03;2.55;;;16.70;99.90;;;;;;4969415;28;20043;-90
2023/07/13 00:19:21;;;;;;;6.18;2.65;;;16.70;99.90;;;;;;4961246;28;20057;-89
2023/07/13 00:21:47;;;;;;;8.93;2.70;;;16.70;99.90;;;;;;4959200;28;20058;-89
2023/07/13 00:24:16;;;;;;;6.63;2.60;;;16.70;99.90;;;;;;4974743;28;20043;-90
2023/07/13 00:26:45;;;;;;;9.63;2.38;;;16.60;99.90;;;;;;4999534;28;20065;-90
2023/07/13 00:29:12;;;;;;;6.93;2.55;;;16.70;99.90;;;;;;4964708;28;20155;-89
2023/07/13 00:31:38;;;;;;;8.27;2.42;;;16.20;99.90;;;;;;5068987;28;20030;-91
2023/07/13 00:34:03;;;;;;;6.10;2.78;;;16.70;99.90;;;;;;4972517;28;20497;-90
2023/07/13 00:36:30;;;;;;;6.05;2.67;;;16.70;99.90;;;;;;4953800;28;20061;-89
2023/07/13 00:38:56;;;;;;;8.18;2.90;;;16.70;99.90;;;;;;4976543;28;20107;-89
2023/07/13 00:41:22;;;;;;;5.72;2.30;;;16.70;99.90;;;;;;5055450;28;20482;-90
2023/07/13 00:43:49;;;;;;;7.05;3.15;;;16.70;99.90;;;;;;4991251;28;20035;-90
2023/07/13 00:46:20;;;;;;;10.55;3.03;;;16.70;99.90;;;;;;5059877;28;20106;-89
2023/07/13 00:48:48;;;;;;;5.20;2.75;;;16.80;99.90;;;;;;4973088;28;20057;-90
2023/07/13 00:51:43;;;;;;;8.35;3.20;;;16.80;99.90;;;;;;4970852;28;20039;-90
2023/07/13 00:54:14;;;;;;;9.38;2.67;;;16.80;99.90;;;;;;5075366;28;20093;-90
2023/07/13 00:56:43;;;;;;;10.15;2.95;;;16.80;99.90;;;;;;4969702;28;20042;-89
2023/07/13 00:59:13;;;;;;;5.80;3.13;;;16.90;99.90;;;;;;4966724;28;20051;-90
2023/07/13 01:01:41;;;;;;;8.10;2.78;;;16.90;99.90;;;;;;4974470;28;20050;-89
2023/07/13 01:04:07;;;;;;;7.00;2.35;;;16.70;99.90;;;;;;5067324;28;20035;-90
2023/07/13 01:06:37;;;;;;;8.63;2.95;;;16.90;99.90;;;;;;4969067;28;20043;-90
2023/07/13 01:09:03;;;;;;;11.07;3.13;;;16.90;99.90;;;;;;4976676;28;20092;-89
2023/07/13 01:11:30;;;;;;;11.20;3.15;;;16.90;99.90;;;;;;5066330;28;20046;-90
2023/07/13 01:13:56;;;;;;;6.43;3.13;;;16.90;99.90;;;;;;5065034;28;20738;-89
2023/07/13 01:16:30;;;;;;;10.93;3.08;;;16.90;99.90;;;;;;4977763;28;20136;-90
2023/07/13 01:18:59;;;;;;;7.35;3.10;;;16.90;99.90;;;;;;4977420;28;20394;-89
2023/07/13 01:21:26;;;;;;;8.63;2.85;;;16.80;99.90;;;;;;5067897;28;20135;-90
2023/07/13 01:23:53;;;;;;;14.02;3.47;;;16.80;99.90;;;;;;4970462;28;20035;-89
2023/07/13 01:26:20;;;;;;;12.18;2.95;;;16.80;99.90;;;;;;5060764;28;20390;-89
2023/07/13 01:28:45;;;;;;;10.07;3.50;;;16.80;99.90;;;;;;5071524;28;20039;-89
2023/07/13 01:31:11;;;;;;;8.25;2.95;;;16.80;99.90;;;;;;4971729;28;20046;-89
2023/07/13 01:33:40;;;;;;;7.57;3.10;;;16.70;99.90;;;;;;4967673;28;20095;-89
2023/07/13 01:36:10;;;;;;;9.15;3.20;;;16.70;99.90;;;;;;5060933;28;20042;-89
2023/07/13 01:38:37;;;;;;;10.73;3.08;;;16.70;99.90;;;;;;4970110;28;20042;-90
2023/07/13 01:41:03;;;;;;;11.48;3.78;;;16.70;99.90;;;;;;4972727;28;20042;-89
2023/07/13 01:43:29;;;;;;;9.10;2.92;;;16.80;99.90;;;;;;4978189;28;20045;-89
2023/07/13 01:45:55;;;;;;;13.27;3.60;;;16.80;99.90;;;;;;5010835;28;20080;-89
2023/07/13 01:48:21;;;;;;;9.10;3.63;;;16.70;99.90;;;;;;4957460;28;20078;-89
2023/07/13 01:50:48;;;;;;;9.90;3.50;;;16.80;99.90;;;;;;4978194;28;20127;-89
2023/07/13 01:53:34;;;;;;;11.25;3.75;;;16.80;99.90;;;;;;4958798;28;20107;-90
2023/07/13 01:56:01;;;;;;;11.27;3.40;;;16.70;99.90;;;;;;4974710;28;20047;-88
2023/07/13 01:58:27;;;;;;;10.98;3.75;;;16.30;99.90;;;;;;4964964;28;20112;-88
2023/07/13 02:00:52;;;;;;;11.52;3.95;;;16.90;99.90;;;;;;4959245;28;20490;-89
2023/07/13 02:03:19;;;;;;;11.05;3.53;;;16.80;99.90;;;;;;4970001;28;20510;-89
2023/07/13 02:05:45;;;;;;;9.75;3.17;;;16.90;99.90;;;;;;4963354;28;20051;-89
2023/07/13 02:08:11;;;;;;;13.85;3.85;;;16.90;99.90;;;;;;5061402;28;20083;-88
2023/07/13 02:10:37;;;;;;;9.65;3.10;;;16.80;99.90;;;;;;4968617;28;20074;-89
2023/07/13 02:13:05;;;;;;;7.70;3.80;;;16.80;99.90;;;;;;4959923;28;20043;-89
2023/07/13 02:15:31;;;;;;;10.77;3.58;;;16.90;99.90;;;;;;4963365;28;20077;-89
2023/07/13 02:17:58;;;;;;;12.65;3.85;;;16.90;99.90;;;;;;5017247;28;20383;-89
2023/07/13 02:20:24;;;;;;;11.27;3.40;;;16.80;99.90;;;;;;4972680;28;20034;-89
2023/07/13 02:22:50;;;;;;;9.93;3.03;;;16.70;99.90;;;;;;4975809;28;20085;-89
2023/07/13 02:25:16;;;;;;;7.20;2.72;;;16.80;99.90;;;;;;5050944;28;20042;-89
2023/07/13 02:27:42;;;;;;;10.10;3.50;;;16.70;99.90;;;;;;4978802;28;20054;-89
2023/07/13 02:30:08;;;;;;;14.55;4.38;;;16.80;99.90;;;;;;4970936;28;20042;-89
2023/07/13 02:32:35;;;;;;;12.45;3.45;;;16.80;99.90;;;;;;4956413;28;20558;-89
2023/07/13 02:35:01;;;;;;;10.55;3.67;;;16.80;99.90;;;;;;4988387;28;20049;-89
2023/07/13 02:37:26;;;;;;;11.38;3.78;;;16.80;99.90;;;;;;5061893;28;20058;-89
2023/07/13 02:39:52;;;;;;;8.75;3.35;;;16.80;99.90;;;;;;4986376;28;20096;-89
2023/07/13 02:42:19;;;;;;;10.82;2.95;;;16.80;99.90;;;;;;4991151;28;20084;-89
2023/07/13 02:44:45;;;;;;;10.90;3.40;;;16.80;99.90;;;;;;4991098;28;20514;-89
2023/07/13 02:47:11;;;;;;;8.88;3.15;;;16.70;99.90;;;;;;4964854;28;20039;-89
2023/07/13 02:49:37;;;;;;;10.77;3.63;;;16.70;99.90;;;;;;4964632;28;20031;-89
2023/07/13 02:52:04;;;;;;;7.95;3.60;;;16.60;99.90;;;;;;4955175;28;20486;-89
2023/07/13 02:54:29;;;;;;;12.73;4.18;;;16.70;99.90;;;;;;4961841;28;20059;-89
2023/07/13 02:56:55;;;;;;;13.38;4.10;;;16.60;99.90;;;;;;5064188;28;20379;-88
2023/07/13 02:59:21;;;;;;;16.75;4.43;;;16.60;99.90;;;;;;4987544;28;20042;-89
2023/07/13 03:01:47;;;;;;;8.70;3.88;;;16.60;99.90;;;;;;5012769;28;20041;-89
2023/07/13 03:04:13;;;;;;;12.98;3.78;;;16.50;99.90;;;;;;5051759;28;20521;-89
2023/07/13 03:06:39;;;;;;;12.15;4.25;;;16.50;99.90;;;;;;4958077;28;20042;-88
2023/07/13 03:09:05;;;;;;;11.07;3.45;;;16.50;99.90;;;;;;4980728;28;20036;-89
2023/07/13 03:11:31;;;;;;;13.02;3.72;;;16.50;99.90;;;;;;5036378;28;20058;-89
2023/07/13 03:13:57;;;;;;;14.93;5.22;;;16.50;99.90;;;;;;4954667;28;20402;-88
2023/07/13 03:16:22;;;;;;;10.65;4.15;;;16.50;99.90;;;;;;4976207;28;20038;-89
2023/07/13 03:18:48;;;;;;;11.90;4.07;;;16.50;99.90;;;;;;4974956;28;20445;-88
2023/07/13 03:21:15;;;;;;;11.00;4.28;;;16.40;99.90;;;;;;4953692;28;20039;-89
2023/07/13 03:23:41;;;;;;;12.15;4.43;;;16.40;99.90;;;;;;5038540;28;20085;-88
2023/07/13 03:26:14;;;;;;;10.65;3.38;;;16.40;99.90;;;;;;5060556;28;20068;-89
2023/07/13 03:28:39;;;;;;;11.45;3.70;;;16.40;99.90;;;;;;4959239;28;20080;-89
2023/07/13 03:31:09;;;;;;;8.23;3.53;;;16.40;99.90;;;;;;4971177;28;20026;-88
2023/07/13 03:33:41;;;;;;;11.07;3.78;;;16.40;99.90;;;;;;4977406;28;20063;-88
2023/07/13 03:36:12;;;;;;;10.80;3.97;;;16.20;99.90;;;;;;5060690;28;20038;-88
2023/07/13 03:38:38;;;;;;;16.48;4.35;;;16.40;99.90;;;;;;4962685;28;20034;-87
2023/07/13 03:41:03;;;;;;;9.63;3.45;;;16.30;99.90;;;;;;4996597;28;20038;-88
2023/07/13 03:43:29;;;;;;;9.38;3.90;;;16.30;99.90;;;;;;4976072;28;20030;-88
2023/07/13 03:45:58;;;;;;;14.90;3.90;;;16.40;99.90;;;;;;4970002;28;20077;-88
2023/07/13 03:48:25;;;;;;;8.77;3.55;;;16.30;99.90;;;;;;4962466;28;20046;-88
2023/07/13 03:50:50;;;;;;;11.57;4.05;;;16.40;99.90;;;;;;5043627;28;20039;-88
2023/07/13 03:53:16;;;;;;;13.40;4.35;;;16.40;99.90;;;;;;5048681;28;20047;-89
2023/07/13 03:55:42;;;;;;;17.50;4.00;;;16.40;99.90;;;;;;4974759;28;20415;-90
2023/07/13 03:58:30;;;;;;;11.38;3.65;;;16.40;99.90;;;;;;4966630;28;20035;-90
2023/07/13 04:00:57;;;;;;;12.15;3.72;;;16.50;99.90;;;;;;4960510;28;20046;-89
2023/07/13 04:03:23;;;;;;;7.97;3.15;;;16.50;99.90;;;;;;5066649;28;20046;-89
2023/07/13 04:05:50;;;;;;;11.77;4.13;;;16.50;99.90;;;;;;4989505;28;20046;-89
2023/07/13 04:08:16;;;;;;;11.00;3.72;;;16.50;99.90;;;;;;4964838;28;20039;-89
2023/07/13 04:10:43;;;;;;;13.95;3.92;;;16.60;99.90;;;;;;4966610;28;20037;-89
2023/07/13 04:13:09;;;;;;;9.02;3.72;;;16.60;99.90;;;;;;5041149;28;20035;-89
2023/07/13 04:15:34;;;;;;;13.68;4.70;;;16.50;99.90;;;;;;5000954;28;20085;-89
2023/07/13 04:18:00;;;;;;;11.95;4.47;;;16.60;99.90;;;;;;5060043;28;20127;-89
2023/07/13 04:20:26;;;;;;;12.30;3.78;;;16.60;99.90;;;;;;4961230;28;20053;-90
2023/07/13 04:22:55;;;;;;;10.30;3.60;;;16.60;99.90;;;;;;4963966;28;20042;-89
2023/07/13 04:25:21;;;;;;;11.32;4.22;;;16.60;99.90;;;;;;4964676;28;20121;-90
2023/07/13 04:27:47;;;;;;;12.35;3.85;;;16.70;99.90;;;;;;4969039;28;20129;-88
2023/07/13 04:30:13;;;;;;;12.73;4.22;;;16.10;99.90;;;;;;4969852;28;20038;-88
2023/07/13 04:32:42;;;;;;;11.25;3.72;;;16.70;99.90;;;;;;5005754;28;20174;-89
2023/07/13 04:35:08;;;;;;;10.85;4.40;;;16.70;99.90;;;;;;4967660;28;20034;-89
2023/07/13 04:37:36;;;;;;;12.18;4.60;;;16.70;99.90;;;;;;4971407;28;20092;-89
2023/07/13 04:40:03;;;;;;;16.27;4.68;;;16.60;99.90;;;;;;5068099;28;20038;-90
2023/07/13 04:42:29;;;;;;;10.10;4.05;;;16.70;99.90;;;;;;5068161;28;20050;-89
2023/07/13 04:44:58;;;;;;;15.45;4.50;;;16.70;99.90;;;;;;4975411;28;20034;-89
2023/07/13 04:47:24;;;;;;;11.80;4.45;;;16.60;99.90;;;;;;5069558;28;20039;-89
2023/07/13 04:49:51;;;;;;;10.27;3.88;;;16.70;99.90;;;;;;5064057;28;20043;-89
2023/07/13 04:52:17;;;;;;;14.80;4.25;;;16.80;99.90;;;;;;4963832;28;20483;-89
2023/07/13 04:54:42;;;;;;;12.85;4.13;;;16.80;99.90;;;;;;4970885;28;20052;-89
2023/07/13 04:57:08;;;;;;;11.60;3.55;;;16.70;99.90;;;;;;4944600;28;20050;-89
2023/07/13 04:59:34;;;;;;;13.93;3.97;;;16.70;99.90;;;;;;4975151;28;20093;-88
2023/07/13 05:02:03;;;;;;;13.80;3.95;;;16.90;99.90;;;;;;4953891;28;20600;-90
2023/07/13 05:04:29;;;;;;;12.13;4.50;;;16.90;99.90;;;;;;4955912;28;20141;-90
2023/07/13 05:06:59;;;;;;;13.18;4.30;;;16.80;99.90;;;;;;4952506;28;20043;-89
2023/07/13 05:09:26;;;;;;;12.93;4.18;;;17.00;99.90;;;;;;4959912;28;20434;-89
2023/07/13 05:11:52;;;;;;;9.88;3.95;;;16.90;99.90;;;;;;4986948;28;20116;-89
2023/07/13 05:14:17;;;;;;;9.15;3.47;;;16.90;99.90;;;;;;4975803;28;20070;-89
2023/07/13 05:16:43;;;;;;;11.00;3.65;;;17.00;99.90;;;;;;4972016;28;20030;-89
2023/07/13 05:19:12;;;;;;;10.52;3.85;;;17.00;99.90;;;;;;4969065;28;20042;-90
2023/07/13 05:21:38;;;;;;;14.98;4.25;;;17.20;99.90;;;;;;5055395;28;20038;-89
2023/07/13 05:24:04;;;;;;;13.95;4.30;;;17.10;99.90;;;;;;5062429;28;20126;-89
2023/07/13 05:26:30;;;;;;;9.07;3.08;;;17.30;99.90;;;;;;5063345;28;20065;-89
2023/07/13 05:28:56;;;;;;;13.13;4.05;;;17.30;99.90;;;;;;4965681;28;20115;-89
2023/07/13 05:31:21;;;;;;;13.32;3.58;;;17.20;99.90;;;;;;4995306;28;20039;-90
2023/07/13 05:33:50;;;;;;;9.43;3.45;;;17.40;99.90;;;;;;4976480;28;20042;-89
2023/07/13 05:36:16;;;;;;;11.98;4.82;;;17.40;99.90;;;;;;5070616;28;20051;-90
2023/07/13 05:38:42;;;;;;;11.27;3.50;;;17.40;99.90;;;;;;5066132;28;20425;-89
2023/07/13 05:41:07;;;;;;;10.15;3.83;;;17.40;99.90;;;;;;4961394;28;20041;-89
2023/07/13 05:43:34;;;;;;;10.75;3.70;;;17.40;99.90;;;;;;4961011;28;20076;-89
2023/07/13 05:45:59;;;;;;;13.15;3.65;;;17.50;99.90;;;;;;4982542;28;20039;-89
2023/07/13 05:48:25;;;;;;;8.13;3.58;;;17.40;99.90;;;;;;4947665;28;20099;-89
2023/07/13 05:50:55;;;;;;;7.38;3.78;;;17.50;99.90;;;;;;4964676;28;20046;-90
2023/07/13 05:53:21;;;;;;;9.75;3.33;;;17.60;99.90;;;;;;5029355;28;20075;-88
2023/07/13 05:55:49;;;;;;;8.57;3.03;;;17.60;99.90;;;;;;4956127;28;20073;-89
2023/07/13 05:58:17;;;;;;;9.52;3.25;;;17.70;99.90;;;;;;4952565;28;20046;-88
2023/07/13 06:00:42;;;;;;;7.68;2.90;;;17.80;99.90;;;;;;4962953;28;20049;-88
2023/07/13 06:03:08;;;;;;;10.65;3.00;;;17.80;99.90;;;;;;4967537;28;20112;-89
2023/07/13 06:05:36;;;;;;;10.38;3.80;;;17.90;99.90;;;;;;4966726;28;20094;-89
2023/07/13 06:08:02;;;;;;;11.18;3.53;;;17.90;99.90;;;;;;4973191;28;20050;-89
2023/07/13 06:10:28;;;;;;;9.32;3.10;;;18.00;99.90;;;;;;5040471;28;20035;-88
2023/07/13 06:12:54;;;;;;;9.05;3.60;;;18.00;99.90;;;;;;4963573;28;20041;-89
2023/07/13 06:15:19;;;;;;;7.95;3.28;;;17.90;99.90;;;;;;4974847;28;20048;-88
2023/07/13 06:17:46;;;;;;;8.52;3.17;;;17.90;99.90;;;;;;4964330;28;20038;-89
2023/07/13 06:20:13;;;;;;;7.28;3.03;;;18.10;99.90;;;;;;4995523;28;20389;-89
2023/07/13 06:22:40;;;;;;;8.02;2.72;;;18.70;99.90;;;;;;4981539;28;20035;-89
2023/07/13 06:25:06;;;;;;;11.35;3.53;;;18.40;99.90;;;;;;5026140;28;20038;-88
2023/07/13 06:27:32;;;;;;;8.13;3.10;;;18.60;99.90;;;;;;4959133;28;20107;-90
2023/07/13 06:29:59;;;;;;;10.75;2.95;;;18.60;99.90;;;;;;4956815;28;20031;-88
2023/07/13 06:32:31;;;;;;;11.35;3.58;;;18.10;99.90;;;;;;5058967;28;20054;-88
2023/07/13 06:34:57;;;;;;;8.45;3.20;;;18.90;99.90;;;;;;5042728;28;20034;-89
2023/07/13 06:37:22;;;;;;;8.15;2.88;;;19.10;99.90;;;;;;5059452;28;20095;-89
2023/07/13 06:39:48;;;;;;;6.80;2.40;;;19.40;99.90;;;;;;5040624;28;20074;-88
2023/07/13 06:42:15;;;;;;;5.63;2.60;;;19.30;99.90;;;;;;5052244;28;20444;-88
2023/07/13 06:44:42;;;;;;;6.72;2.83;;;19.50;99.90;;;;;;4956153;28;20097;-88
2023/07/13 06:47:08;;;;;;;9.63;2.80;;;19.60;99.90;;;;;;4964171;28;20046;-89
2023/07/13 06:49:33;;;;;;;7.38;2.40;;;19.50;99.90;;;;;;4957350;28;20042;-88
2023/07/13 06:51:59;;;;;;;7.72;2.85;;;19.70;99.90;;;;;;4948603;28;20035;-87
2023/07/13 06:54:25;;;;;;;7.97;2.67;;;19.60;99.90;;;;;;5059718;28;20050;-87
2023/07/13 06:56:51;;;;;;;9.43;2.33;;;19.70;99.90;;;;;;5061388;28;20061;-88
2023/07/13 06:59:16;;;;;;;10.23;2.58;;;20.00;99.90;;;;;;4993463;28;20042;-89
2023/07/13 07:01:42;;;;;;;6.55;2.17;;;20.30;99.90;;;;;;4953768;28;20500;-89
2023/07/13 07:04:08;;;;;;;6.65;2.38;;;20.60;99.90;;;;;;5051613;28;20103;-88
2023/07/13 07:06:34;;;;;;;7.20;2.28;;;20.70;99.90;;;;;;5057773;28;20512;-88
2023/07/13 07:08:59;;;;;;;6.88;2.67;;;20.60;99.90;;;;;;5054102;28;20178;-89
2023/07/13 07:11:26;;;;;;;3.92;2.00;;;20.50;99.90;;;;;;5054851;28;20043;-88
2023/07/13 07:13:53;;;;;;;3.85;1.77;;;20.20;99.90;;;;;;5055657;28;20062;-90
2023/07/13 07:16:19;;;;;;;3.70;2.10;;;20.30;99.90;;;;;;4980751;28;20039;-88
2023/07/13 07:18:45;;;;;;;14.20;4.70;;;20.50;99.90;;;;;;5052001;28;20487;-88
2023/07/13 07:21:11;;;;;;;7.65;2.28;;;20.70;99.90;;;;;;4970850;28;20046;-90
2023/07/13 07:23:37;;;;;;;7.80;2.35;;;20.60;99.90;;;;;;4975506;28;20520;-90
2023/07/13 07:26:03;;;;;;;8.40;2.20;;;21.20;99.90;;;;;;4981091;28;20077;-88
2023/07/13 07:28:35;;;;;;;5.53;2.40;;;21.40;99.90;;;;;;4977078;28;20130;-90
2023/07/13 07:31:01;;;;;;;5.68;2.00;;;21.60;99.90;;;;;;4977347;28;20436;-87
2023/07/13 07:33:27;;;;;;;3.50;1.77;;;21.70;99.90;;;;;;4960783;28;20038;-89
2023/07/13 07:35:53;;;;;;;3.38;1.65;;;21.30;99.90;;;;;;4960254;28;20621;-88
2023/07/13 07:38:19;;;;;;;4.30;1.98;;;21.20;99.90;;;;;;4961255;28;20050;-89
2023/07/13 07:40:44;;;;;;;3.92;1.80;;;21.10;99.90;;;;;;4956506;28;20085;-89
2023/07/13 07:43:11;;;;;;;5.35;2.30;;;21.20;99.90;;;;;;5049334;28;20039;-89
2023/07/13 07:45:39;;;;;;;5.53;2.63;;;21.00;99.90;;;;;;4967649;28;20045;-88
2023/07/13 07:48:07;;;;;;;5.75;2.00;;;20.70;99.90;;;;;;4977176;28;20045;-89
2023/07/13 07:50:33;;;;;;;4.57;1.85;;;20.70;99.90;;;;;;4995090;28;20038;-89
2023/07/13 07:52:59;;;;;;;8.10;2.55;;;20.80;99.90;;;;;;4977963;28;20375;-89
2023/07/13 07:55:28;;;;;;;9.73;3.17;;;20.70;99.90;;;;;;4944886;28;20137;-88
2023/07/13 07:57:54;;;;;;;5.70;2.30;;;20.60;99.90;;;;;;5068693;28;20053;-88
2023/07/13 08:00:20;;;;;;;7.05;2.65;;;19.60;99.90;;;;;;5057618;28;20049;-90
2023/07/13 08:02:46;;;;;;;3.75;2.00;;;20.60;99.90;;;;;;4982568;28;20494;-90
2023/07/13 08:05:12;;;;;;;6.43;2.30;;;20.60;99.90;;;;;;4968795;28;20398;-88
2023/07/13 08:07:40;;;;;;;8.75;2.55;;;20.50;99.90;;;;;;4976296;28;20562;-89
2023/07/13 08:10:09;;;;;;;6.20;2.72;;;20.40;99.90;;;;;;4956787;28;20045;-91
2023/07/13 08:12:39;;;;;;;5.88;2.40;;;20.00;99.90;;;;;;4983930;28;20038;-89
2023/07/13 08:15:09;;;;;;;7.93;2.20;;;20.00;99.90;;;;;;4959471;28;20450;-89
2023/07/13 08:17:35;;;;;;;4.13;1.70;;;20.00;99.90;;;;;;4970514;28;20189;-88
2023/07/13 08:20:01;;;;;;;2.75;1.73;;;19.80;99.90;;;;;;4959743;28;20042;-89
2023/07/13 08:22:27;;;;;;;4.78;1.65;;;19.70;99.90;;;;;;5003402;28;20397;-88
2023/07/13 08:24:55;;;;;;;2.97;1.40;;;19.70;99.90;;;;;;5011097;28;20129;-90
2023/07/13 08:27:26;;;;;;;2.70;1.58;;;19.50;99.90;;;;;;4981662;28;20096;-89
2023/07/13 08:29:52;;;;;;;2.83;1.50;;;19.70;99.90;;;;;;4986140;28;20038;-90
2023/07/13 08:32:19;;;;;;;5.30;1.73;;;19.90;99.90;;;;;;5050601;28;20035;-86
2023/07/13 08:34:45;;;;;;;2.38;1.40;;;20.10;99.90;;;;;;5065701;28;20039;-89
2023/07/13 08:37:11;;;;;;;4.78;1.52;;;20.30;99.90;;;;;;4952999;28;20497;-89
2023/07/13 08:39:37;;;;;;;4.35;2.05;;;20.40;99.90;;;;;;4955784;28;20096;-87
2023/07/13 08:42:23;;;;;;;2.67;1.75;;;20.60;99.90;;;;;;5055752;28;20104;-89
2023/07/13 08:44:54;;;;;;;3.95;2.03;;;20.80;99.90;;;;;;4980842;28;20042;-88
2023/07/13 08:47:23;;;;;;;4.78;1.70;;;20.70;99.90;;;;;;4975173;28;20682;-89
2023/07/13 08:49:50;;;;;;;4.07;1.85;;;21.00;99.90;;;;;;4974284;28;20121;-90
2023/07/13 08:52:27;;;;;;;3.90;2.00;;;21.30;99.90;;;;;;4958530;28;20050;-89
2023/07/13 08:54:57;;;;;;;2.22;1.48;;;21.40;99.90;;;;;;4997990;28;20048;-87
2023/07/13 08:57:30;;;;;;;5.63;1.63;;;21.40;99.90;;;;;;4978321;28;20051;-88
2023/07/13 08:59:56;;;;;;;3.10;1.60;;;21.90;99.90;;;;;;5076540;28;20130;-91
2023/07/13 09:02:46;;;;;;;3.55;1.70;;;21.70;99.90;;;;;;5076663;28;20068;-89
2023/07/13 09:05:30;;;;;;;4.78;1.90;;;21.40;99.90;;;;;;5025599;28;21429;-89
2023/07/13 09:08:28;;;;;;;3.40;1.40;;;21.60;99.90;;;;;;4974082;28;20483;-89
2023/07/13 09:11:13;;;;;;;3.88;2.08;;;21.70;99.90;;;;;;4961877;28;20046;-88
2023/07/13 09:14:05;;;;;;;4.10;1.85;;;21.90;99.90;;;;;;4971239;28;20046;-88
2023/07/13 09:16:31;;;;;;;3.50;1.90;;;22.00;99.90;;;;;;5078288;28;20500;-88
2023/07/13 09:19:04;;;;;;;6.97;1.77;;;22.00;99.90;;;;;;5018558;28;20498;-88
2023/07/13 09:21:37;;;;;;;3.85;1.55;;;21.80;99.90;;;;;;5071693;28;20048;-89
2023/07/13 09:24:28;;;;;;;5.77;1.90;;;21.90;99.90;;;;;;5069038;28;20139;-87
2023/07/13 09:26:55;;;;;;;5.50;2.17;;;21.70;99.90;;;;;;4994381;28;20447;-87
2023/07/13 09:29:28;;;;;;;4.43;2.10;;;21.80;99.90;;;;;;5075879;28;20119;-88
2023/07/13 09:31:58;;;;;;;4.47;1.83;;;22.10;99.90;;;;;;5092099;28;20035;-88
2023/07/13 09:34:25;;;;;;;5.25;1.98;;;22.40;99.90;;;;;;5047877;28;20038;-88
2023/07/13 09:36:51;;;;;;;4.80;1.90;;;22.20;99.90;;;;;;5020670;28;20075;-89
2023/07/13 09:39:20;;;;;;;4.78;2.08;;;22.20;99.90;;;;;;4983179;28;20074;-88
2023/07/13 09:42:09;;;;;;;4.38;1.50;;;21.90;99.90;;;;;;4979406;28;20077;-89
2023/07/13 09:44:59;;;;;;;3.55;1.50;;;21.60;99.90;;;;;;4958023;28;20043;-88
2023/07/13 09:47:29;;;;;;;6.95;2.15;;;21.40;99.90;;;;;;5036955;28;20078;-89
2023/07/13 09:50:04;;;;;;;3.08;2.00;;;21.40;99.90;;;;;;4962040;28;20042;-89
2023/07/13 09:52:46;;;;;;;3.67;1.70;;;21.20;99.90;;;;;;4970201;28;20039;-88
2023/07/13 09:55:34;;;;;;;4.63;2.40;;;21.10;99.90;;;;;;4973328;28;20051;-88
2023/07/13 09:58:24;;;;;;;4.10;2.10;;;21.90;99.90;;;;;;4973711;28;20042;-89
2023/07/13 10:01:00;;;;;;;4.40;2.00;;;22.40;99.90;;;;;;5067665;28;20415;-89
2023/07/13 10:03:28;;;;;;;3.17;1.80;;;22.80;99.90;;;;;;4996507;28;20056;-90
2023/07/13 10:05:54;;;;;;;3.17;1.88;;;22.80;99.90;;;;;;4954977;28;20152;-89
2023/07/13 10:08:30;;;;;;;4.45;2.22;;;22.60;99.90;;;;;;4937834;28;20050;-89
2023/07/13 10:11:29;;;;;;;5.60;2.70;;;22.20;99.90;;;;;;4969811;28;20115;-87
2023/07/13 10:14:11;;;;;;;4.72;2.60;;;21.60;99.90;;;;;;5072978;28;20038;-90
2023/07/13 10:16:37;;;;;;;10.60;3.70;;;21.40;99.90;;;;;;5066102;28;20038;-88
2023/07/13 10:19:10;;;;;;;6.90;2.75;;;21.10;99.90;;;;;;4951913;28;20043;-88
2023/07/13 10:21:41;;;;;;;4.47;2.37;;;20.90;99.90;;;;;;4969994;28;20042;-89
2023/07/13 10:24:33;;;;;;;5.60;2.95;;;20.60;99.90;;;;;;5071715;28;20073;-87
2023/07/13 10:27:25;;;;;;;4.68;2.53;;;20.60;99.90;;;;;;4954174;28;20050;-88
2023/07/13 10:30:01;;;;;;;5.90;2.33;;;20.20;99.90;;;;;;4978312;28;20134;-87
2023/07/13 10:32:27;;;;;;;5.70;2.70;;;20.00;99.90;;;;;;5018506;28;20067;-87
2023/07/13 10:34:55;;;;;;;4.85;3.00;;;20.00;99.90;;;;;;5003354;28;20042;-89
2023/07/13 10:37:36;;;;;;;4.45;2.30;;;20.10;99.90;;;;;;4971298;28;20737;-89
2023/07/13 10:40:04;;;;;;;4.03;2.28;;;20.30;99.90;;;;;;4984091;28;20512;-87
2023/07/13 10:42:39;;;;;;;4.22;2.85;;;20.60;99.90;;;;;;4958071;28;20042;-87
2023/07/13 10:45:24;;;;;;;5.60;2.80;;;20.60;99.90;;;;;;4973050;28;20046;-88
2023/07/13 10:47:55;;;;;;;4.07;2.72;;;20.20;99.90;;;;;;4971735;28;20054;-87
2023/07/13 10:50:27;;;;;;;6.22;3.38;;;20.20;99.90;;;;;;5035471;28;20392;-90
2023/07/13 10:52:56;;;;;;;6.55;2.83;;;20.30;99.90;;;;;;4979926;28;20054;-87
2023/07/13 10:55:32;;;;;;;3.83;3.00;;;20.30;99.90;;;;;;4979334;28;20054;-90
2023/07/13 10:58:14;;;;;;;7.13;3.30;;;20.40;99.90;;;;;;4977729;28;20046;-87
2023/07/13 11:00:49;;;;;;;3.72;2.22;;;20.70;99.90;;;;;;5077921;28;20049;-88
2023/07/13 11:03:18;;;;;;;3.22;2.28;;;20.50;99.90;;;;;;4980130;28;20175;-88
2023/07/13 11:05:47;;;;;;;3.33;2.15;;;21.20;99.90;;;;;;4994044;28;20046;-89
2023/07/13 11:08:30;;;;;;;3.92;1.70;;;21.60;99.90;;;;;;4975402;28;20459;-86
2023/07/13 11:10:56;;;;;;;3.30;1.42;;;21.40;99.90;;;;;;5062088;28;20103;-87
2023/07/13 11:13:45;;;;;;;3.42;1.20;;;22.00;99.90;;;;;;4949826;28;22056;-88
2023/07/13 11:16:46;;;;;;;3.05;1.30;;;22.30;99.90;;;;;;4995732;28;20046;-89
2023/07/13 11:19:14;;;;;;;2.50;1.10;;;22.60;99.90;;;;;;5067124;28;20077;-90
2023/07/13 11:22:05;;;;;;;2.90;1.13;;;22.50;99.90;;;;;;4976667;28;20053;-87
2023/07/13 11:25:20;;;;;;;1.50;1.00;;;23.00;99.90;;;;;;4971206;28;20046;-87
2023/07/13 11:27:51;;;;;;;4.00;1.25;;;22.80;99.90;;;;;;4966418;28;20054;-88
2023/07/13 11:30:22;;;;;;;3.40;1.15;;;22.90;99.90;;;;;;4961081;28;20062;-90
2023/07/13 11:33:07;;;;;;;4.30;1.27;;;23.30;99.90;;;;;;4961255;28;20386;-87
2023/07/13 11:35:38;;;;;;;2.08;1.20;;;23.70;99.90;;;;;;4978074;28;20485;-88
2023/07/13 11:38:13;;;;;;;2.72;1.30;;;23.40;99.90;;;;;;5061023;28;20092;-90
2023/07/13 11:40:39;;;;;;;2.22;1.50;;;23.30;99.90;;;;;;4977208;28;20106;-87
2023/07/13 11:43:07;;;;;;;1.63;1.10;;;23.60;99.90;;;;;;4999759;28;20034;-88
2023/07/13 11:45:33;;;;;;;2.47;1.77;;;23.00;99.90;;;;;;5016523;28;20047;-88
2023/07/13 11:48:01;;;;;;;5.63;2.40;;;22.50;99.90;;;;;;4980589;28;20050;-90
2023/07/13 11:50:27;;;;;;;4.50;1.70;;;23.30;99.90;;;;;;4981983;28;20138;-90
2023/07/13 11:52:55;;;;;;;2.25;1.42;;;23.30;99.90;;;;;;4974695;28;20487;-89
2023/07/13 11:55:24;;;;;;;5.03;2.30;;;23.20;99.90;;;;;;5045385;28;20402;-89
2023/07/13 11:57:56;;;;;;;4.47;1.60;;;23.10;99.90;;;;;;5044497;28;20043;-90
2023/07/13 12:00:26;;;;;;;3.67;1.45;;;23.70;99.90;;;;;;5060198;28;20596;-88
2023/07/13 12:02:55;;;;;;;3.65;1.55;;;24.00;99.90;;;;;;4976570;28;20444;-91
2023/07/13 12:05:21;;;;;;;3.03;1.50;;;24.20;99.90;;;;;;4987166;28;20046;-89
2023/07/13 12:07:48;;;;;;;2.28;1.10;;;23.30;99.90;;;;;;5081363;28;20061;-87
2023/07/13 12:10:20;;;;;;;2.85;1.42;;;23.80;99.90;;;;;;4995723;28;20171;-89
2023/07/13 12:12:48;;;;;;;2.42;1.27;;;24.30;99.90;;;;;;4995478;28;20069;-90
2023/07/13 12:15:14;;;;;;;7.07;1.40;;;24.80;99.90;;;;;;5094545;28;20057;-90
2023/07/13 12:17:42;;;;;;;2.83;1.45;;;25.10;99.90;;;;;;5081903;28;20041;-90
2023/07/13 12:20:24;;;;;;;3.97;1.55;;;24.90;99.90;;;;;;4993565;28;20138;-89
2023/07/13 12:22:51;;;;;;;2.22;1.40;;;24.70;99.90;;;;;;4976531;28;20085;-89
2023/07/13 12:25:18;;;;;;;4.07;1.20;;;24.50;99.90;;;;;;4976855;28;20492;-91
2023/07/13 12:27:49;;;;;;;1.88;1.10;;;24.80;99.90;;;;;;4975916;28;20125;-91
2023/07/13 12:30:35;;;;;;;5.53;1.55;;;24.30;99.90;;;;;;4975999;28;20046;-90
2023/07/13 12:33:20;;;;;;;4.25;1.60;;;23.50;99.90;;;;;;4960802;28;20034;-91
2023/07/13 12:35:48;;;;;;;3.15;1.48;;;23.60;99.90;;;;;;4957021;28;20395;-90
2023/07/13 12:38:16;;;;;;;2.67;1.30;;;23.70;99.90;;;;;;4972182;28;20043;-91
2023/07/13 12:40:42;;;;;;;4.25;1.33;;;23.70;99.90;;;;;;4972315;28;20545;-89
2023/07/13 12:43:15;;;;;;;3.03;1.20;;;23.90;99.90;;;;;;4971773;28;20096;-90
2023/07/13 12:45:56;;;;;;;2.45;1.40;;;24.40;99.90;;;;;;5035984;28;20042;-91
2023/07/13 12:48:22;;;;;;;4.55;1.65;;;24.40;90.70;;;;;;4984552;28;20121;-92
2023/07/13 12:50:52;;;;;;;2.55;1.35;;;23.40;99.90;;;;;;4975326;28;20550;-88
2023/07/13 12:53:31;;;;;;;3.38;1.40;;;22.80;99.90;;;;;;4975776;28;20049;-90
2023/07/13 12:55:59;;;;;;;3.10;1.27;;;22.50;99.90;;;;;;4969946;28;20489;-89